Time;durP1;ratioP1;P1;durP2;ratioP2;P2;SDS_P1;SDS_P2;PMS_P1;PMS_P2;Temp;Humidity;BMP_temperature;BMP_pressure;BME280_temperature;BME280_humidity;BME280_pressure;Samples;Min_cycle;Max_cycle;Signal;HPM_P1;HPM_P2
2022/11/19 00:00:46;;;;;;;3.03;1.80;;;4.90;99.90;;;;;;5091971;28;20024;-84
2022/11/19 00:03:13;;;;;;;4.07;1.80;;;4.90;99.90;;;;;;5091613;28;20029;-84
2022/11/19 00:05:43;;;;;;;3.90;1.93;;;4.90;99.90;;;;;;5073702;28;20062;-84
2022/11/19 00:08:11;;;;;;;3.97;1.70;;;5.00;99.90;;;;;;5091605;28;20028;-84
2022/11/19 00:10:38;;;;;;;2.80;1.60;;;5.00;99.90;;;;;;5091993;28;20063;-84
2022/11/19 00:13:05;;;;;;;3.57;1.50;;;5.00;99.90;;;;;;5091321;28;20032;-84
2022/11/19 00:15:33;;;;;;;2.50;1.80;;;5.00;99.90;;;;;;5091648;28;20043;-84
2022/11/19 00:17:59;;;;;;;4.30;1.60;;;5.00;99.90;;;;;;5091288;28;20510;-84
2022/11/19 00:20:25;;;;;;;5.17;1.90;;;5.00;99.90;;;;;;5090910;28;20028;-84
2022/11/19 00:22:52;;;;;;;3.27;1.73;;;5.00;99.90;;;;;;5091312;28;20032;-84
2022/11/19 00:25:21;;;;;;;3.97;1.70;;;5.00;99.90;;;;;;5091687;28;20031;-84
2022/11/19 00:27:47;;;;;;;3.07;1.73;;;5.00;99.90;;;;;;5091338;28;20066;-84
2022/11/19 00:30:13;;;;;;;3.60;1.60;;;5.00;99.90;;;;;;5091388;28;20052;-84
2022/11/19 00:32:39;;;;;;;2.47;1.70;;;5.00;99.90;;;;;;5091148;28;20028;-84
2022/11/19 00:35:05;;;;;;;2.37;1.80;;;5.00;99.90;;;;;;5091235;28;20032;-84
2022/11/19 00:37:32;;;;;;;3.00;1.80;;;5.00;99.90;;;;;;5091352;28;20158;-84
2022/11/19 00:39:59;;;;;;;5.50;2.13;;;5.00;99.90;;;;;;5091303;28;20055;-84
2022/11/19 00:42:24;;;;;;;4.30;2.30;;;5.00;99.90;;;;;;5091255;28;20062;-83
2022/11/19 00:44:50;;;;;;;6.23;2.57;;;5.00;99.90;;;;;;5090816;28;20035;-84
2022/11/19 00:47:15;;;;;;;7.03;3.30;;;5.00;99.90;;;;;;5091044;28;20028;-84
2022/11/19 00:49:41;;;;;;;6.37;2.53;;;5.10;99.90;;;;;;5091045;28;20028;-84
2022/11/19 00:52:07;;;;;;;6.67;3.07;;;5.10;99.90;;;;;;5090950;28;20461;-84
2022/11/19 00:54:32;;;;;;;7.57;3.30;;;5.10;99.90;;;;;;5090996;28;20024;-84
2022/11/19 00:56:58;;;;;;;8.50;3.30;;;5.10;99.90;;;;;;5090871;28;20052;-84
2022/11/19 00:59:23;;;;;;;6.00;3.23;;;5.10;99.90;;;;;;5089552;28;20032;-83
2022/11/19 01:01:49;;;;;;;6.73;3.30;;;5.10;99.90;;;;;;5091140;28;20035;-84
2022/11/19 01:04:15;;;;;;;5.33;3.23;;;5.20;99.90;;;;;;5090464;28;20448;-84
2022/11/19 01:06:41;;;;;;;6.60;3.67;;;5.20;99.90;;;;;;5090775;28;20051;-84
2022/11/19 01:09:06;;;;;;;6.53;4.40;;;5.20;99.90;;;;;;5090730;28;20032;-84
2022/11/19 01:11:34;;;;;;;6.37;4.27;;;5.20;99.90;;;;;;5090743;28;20024;-84
2022/11/19 01:14:01;;;;;;;6.80;4.00;;;5.20;99.90;;;;;;5090504;28;20507;-84
2022/11/19 01:16:38;;;;;;;11.37;4.33;;;5.20;99.90;;;;;;5090953;28;20031;-84
2022/11/19 01:19:08;;;;;;;7.23;4.27;;;5.20;99.90;;;;;;5090521;28;20500;-84
2022/11/19 01:21:37;;;;;;;8.80;4.20;;;5.20;99.90;;;;;;5090666;28;20028;-83
2022/11/19 01:24:04;;;;;;;8.27;4.27;;;5.30;99.90;;;;;;5090443;28;20090;-84
2022/11/19 01:26:30;;;;;;;7.87;3.97;;;5.30;99.90;;;;;;5089527;28;20384;-84
2022/11/19 01:28:56;;;;;;;7.67;4.50;;;5.30;99.90;;;;;;5090236;28;20036;-84
2022/11/19 01:31:24;;;;;;;8.47;4.03;;;5.30;99.90;;;;;;5092620;28;20024;-84
2022/11/19 01:33:50;;;;;;;8.77;3.93;;;5.30;99.90;;;;;;5094589;28;20032;-83
2022/11/19 01:36:21;;;;;;;7.03;4.00;;;5.40;99.90;;;;;;5094604;28;20419;-84
2022/11/19 01:38:49;;;;;;;7.60;3.97;;;5.40;99.90;;;;;;5094503;28;20077;-84
2022/11/19 01:41:19;;;;;;;6.00;4.33;;;5.50;99.90;;;;;;5094721;28;20020;-84
2022/11/19 01:43:45;;;;;;;6.60;4.10;;;5.50;99.90;;;;;;5094340;28;20032;-84
2022/11/19 01:46:13;;;;;;;11.90;5.07;;;5.50;99.90;;;;;;5093326;28;20031;-84
2022/11/19 01:48:45;;;;;;;10.60;4.60;;;5.50;99.90;;;;;;5092423;28;20044;-84
2022/11/19 01:51:20;;;;;;;10.53;4.70;;;5.50;99.90;;;;;;5094593;28;20808;-84
2022/11/19 01:53:48;;;;;;;8.68;4.45;;;5.50;99.90;;;;;;5094249;28;20039;-84
2022/11/19 01:56:16;;;;;;;6.33;4.27;;;5.50;99.90;;;;;;5094544;28;20032;-84
2022/11/19 01:58:46;;;;;;;8.37;4.80;;;5.50;99.90;;;;;;5077561;28;20120;-84
2022/11/19 02:01:13;;;;;;;8.63;4.50;;;5.50;99.90;;;;;;5094314;28;20372;-83
2022/11/19 02:03:39;;;;;;;7.20;4.60;;;5.50;99.90;;;;;;5093773;28;20032;-83
2022/11/19 02:06:06;;;;;;;8.77;4.30;;;5.50;99.90;;;;;;5094252;28;20036;-84
2022/11/19 02:08:43;;;;;;;9.43;4.67;;;5.40;99.90;;;;;;5093447;28;20039;-84
2022/11/19 02:11:45;;;;;;;8.90;4.23;;;5.40;99.90;;;;;;5094399;28;20060;-84
2022/11/19 02:14:22;;;;;;;8.83;4.07;;;5.40;99.90;;;;;;5093643;28;20035;-84
2022/11/19 02:17:00;;;;;;;7.03;4.33;;;5.40;99.90;;;;;;5094063;28;20043;-84
2022/11/19 02:19:28;;;;;;;8.40;4.20;;;5.40;99.90;;;;;;5093622;28;20032;-84
2022/11/19 02:22:12;;;;;;;8.70;4.37;;;5.40;99.90;;;;;;5093698;28;20095;-84
2022/11/19 02:24:50;;;;;;;7.80;4.10;;;5.40;99.90;;;;;;5093623;28;20035;-83
2022/11/19 02:27:51;;;;;;;6.93;4.30;;;5.40;99.90;;;;;;5093707;28;20028;-83
2022/11/19 02:30:18;;;;;;;9.30;4.20;;;5.40;99.90;;;;;;5093301;28;20048;-83
2022/11/19 02:33:04;;;;;;;7.07;4.40;;;5.40;99.90;;;;;;5075412;28;20036;-84
2022/11/19 02:35:48;;;;;;;7.80;4.50;;;5.40;99.90;;;;;;5093514;28;20028;-84
2022/11/19 02:38:37;;;;;;;6.73;4.23;;;5.40;99.90;;;;;;5093698;28;20020;-83
2022/11/19 02:47:19;;;;;;;6.57;4.17;;;5.50;99.90;;;;;;5048077;28;20032;-84
2022/11/19 02:49:45;;;;;;;5.43;3.70;;;5.40;99.90;;;;;;5093199;28;20032;-84
2022/11/19 02:52:13;;;;;;;6.53;4.20;;;5.30;99.90;;;;;;5093035;28;20103;-84
2022/11/19 02:54:39;;;;;;;6.40;4.10;;;5.30;99.90;;;;;;5093247;28;20369;-84
2022/11/19 02:57:04;;;;;;;5.80;4.30;;;5.20;99.90;;;;;;5093140;28;20051;-84
2022/11/19 03:05:17;;;;;;;7.63;4.37;;;5.20;99.90;;;;;;5093104;28;20039;-84
2022/11/19 03:07:43;;;;;;;6.10;3.97;;;5.20;99.90;;;;;;5093107;28;20484;-84
2022/11/19 03:10:09;;;;;;;8.77;3.57;;;5.20;99.90;;;;;;5092948;28;20051;-84
2022/11/19 03:12:44;;;;;;;7.20;3.87;;;5.20;99.90;;;;;;5092921;28;20044;-84
2022/11/19 03:18:25;;;;;;;8.03;3.63;;;5.20;99.90;;;;;;5093131;28;20078;-84
2022/11/19 03:21:06;;;;;;;7.30;3.63;;;5.20;99.90;;;;;;5093139;28;20459;-84
2022/11/19 03:23:39;;;;;;;5.13;3.47;;;5.20;99.90;;;;;;5092981;28;20028;-84
2022/11/19 03:26:30;;;;;;;4.00;3.10;;;5.20;99.90;;;;;;5092648;28;20108;-84
2022/11/19 03:29:02;;;;;;;6.20;3.30;;;5.20;99.90;;;;;;5092801;28;20028;-84
2022/11/19 03:31:30;;;;;;;6.30;3.17;;;5.20;99.90;;;;;;5092500;28;20035;-84
2022/11/19 03:34:00;;;;;;;5.43;2.97;;;5.20;99.90;;;;;;5072465;28;20032;-84
2022/11/19 03:36:36;;;;;;;4.30;2.80;;;5.20;99.90;;;;;;5092409;28;20032;-84
2022/11/19 03:39:05;;;;;;;4.40;2.83;;;5.20;99.90;;;;;;5092560;28;20024;-84
2022/11/19 03:41:35;;;;;;;3.70;2.80;;;5.20;99.90;;;;;;5092674;28;20122;-84
2022/11/19 03:44:07;;;;;;;4.70;2.83;;;5.20;99.90;;;;;;5054396;28;20032;-84
2022/11/19 03:46:36;;;;;;;4.63;2.60;;;5.20;99.90;;;;;;5072178;28;20424;-84
2022/11/19 03:49:03;;;;;;;8.83;2.53;;;5.30;99.90;;;;;;5091819;28;20044;-83
2022/11/19 03:51:58;;;;;;;4.23;2.90;;;5.30;99.90;;;;;;5092498;28;20016;-84
2022/11/19 03:54:23;;;;;;;4.87;2.50;;;5.30;99.90;;;;;;5071194;28;20025;-84
2022/11/19 03:56:49;;;;;;;7.30;2.93;;;5.30;99.90;;;;;;5074572;28;20111;-84
2022/11/19 03:59:15;;;;;;;3.67;2.50;;;5.30;99.90;;;;;;5092292;28;20032;-84
2022/11/19 04:01:43;;;;;;;3.93;2.40;;;5.30;99.90;;;;;;5091718;28;20028;-84
2022/11/19 04:06:53;;;;;;;4.00;2.37;;;5.20;99.90;;;;;;5072774;28;20377;-84
2022/11/19 04:09:18;;;;;;;4.67;2.40;;;5.20;99.90;;;;;;5091680;28;20036;-84
2022/11/19 04:11:44;;;;;;;3.37;2.20;;;5.30;99.90;;;;;;5091637;28;20055;-84
2022/11/19 04:14:10;;;;;;;4.57;2.43;;;5.20;99.90;;;;;;5091665;28;20023;-84
2022/11/19 04:16:35;;;;;;;5.03;2.10;;;5.20;99.90;;;;;;5091935;28;20505;-84
2022/11/19 04:19:01;;;;;;;2.87;2.13;;;5.20;99.90;;;;;;5091474;28;20440;-84
2022/11/19 04:21:26;;;;;;;5.17;2.07;;;5.20;99.90;;;;;;5091492;28;20050;-84
2022/11/19 04:23:52;;;;;;;3.53;2.10;;;5.20;99.90;;;;;;5091311;28;20035;-84
2022/11/19 04:26:18;;;;;;;5.47;2.23;;;5.10;99.90;;;;;;5091121;28;20107;-84
2022/11/19 04:28:43;;;;;;;4.00;2.17;;;5.10;99.90;;;;;;5091522;28;20376;-84
2022/11/19 04:31:09;;;;;;;5.03;2.20;;;5.10;99.90;;;;;;5075552;28;20028;-84
2022/11/19 04:33:35;;;;;;;3.67;2.20;;;5.10;99.90;;;;;;5091550;28;20868;-83
2022/11/19 04:36:00;;;;;;;3.87;2.20;;;5.10;99.90;;;;;;5088813;28;20024;-84
2022/11/19 04:38:26;;;;;;;4.80;2.00;;;5.10;99.90;;;;;;5090987;28;20031;-83
2022/11/19 04:40:52;;;;;;;3.83;2.20;;;5.10;99.90;;;;;;5090867;28;20068;-83
2022/11/19 04:43:17;;;;;;;5.73;2.27;;;5.10;99.90;;;;;;5089873;28;20024;-83
2022/11/19 04:45:43;;;;;;;3.60;2.00;;;5.10;99.90;;;;;;5090646;28;20122;-83
2022/11/19 04:48:08;;;;;;;4.73;2.00;;;5.10;99.90;;;;;;5090945;28;20083;-83
2022/11/19 04:50:34;;;;;;;3.03;2.17;;;5.10;99.90;;;;;;5090981;28;20028;-84
2022/11/19 04:52:59;;;;;;;3.90;2.43;;;5.10;99.90;;;;;;5090075;28;20024;-84
2022/11/19 04:55:25;;;;;;;5.27;2.30;;;5.10;99.90;;;;;;5091219;28;20096;-84
2022/11/19 04:57:51;;;;;;;4.83;2.10;;;5.10;99.90;;;;;;5091040;28;20031;-84
2022/11/19 05:00:18;;;;;;;3.93;2.30;;;5.10;99.90;;;;;;5081947;28;20570;-84
2022/11/19 05:02:44;;;;;;;3.10;2.20;;;5.20;99.90;;;;;;5090969;28;20059;-84
2022/11/19 05:05:09;;;;;;;2.93;2.30;;;5.10;99.90;;;;;;5091232;28;20467;-83
2022/11/19 05:07:35;;;;;;;3.87;2.50;;;5.10;99.90;;;;;;5091079;28;20124;-84
2022/11/19 05:10:01;;;;;;;3.53;2.33;;;5.20;99.90;;;;;;5091257;28;20032;-83
2022/11/19 05:12:26;;;;;;;5.03;2.00;;;5.20;99.90;;;;;;5091188;28;20036;-84
2022/11/19 05:14:52;;;;;;;4.53;2.10;;;5.20;99.90;;;;;;5091155;28;20108;-84
2022/11/19 05:17:17;;;;;;;4.13;2.17;;;5.20;99.90;;;;;;5091261;28;20016;-84
2022/11/19 05:19:43;;;;;;;2.10;1.70;;;5.20;99.90;;;;;;5091116;28;20028;-83
2022/11/19 05:22:09;;;;;;;3.67;2.57;;;5.20;99.90;;;;;;5091395;28;20400;-84
2022/11/19 05:24:34;;;;;;;5.77;2.20;;;5.20;99.90;;;;;;5072447;28;20067;-83
2022/11/19 05:27:00;;;;;;;4.13;1.80;;;5.20;99.90;;;;;;5072523;28;20031;-83
2022/11/19 05:29:25;;;;;;;2.50;1.80;;;5.20;99.90;;;;;;5090572;28;20492;-83
2022/11/19 05:31:51;;;;;;;3.97;1.80;;;5.20;99.90;;;;;;5090523;28;20032;-83
2022/11/19 05:34:16;;;;;;;4.67;2.00;;;5.20;99.90;;;;;;5090561;28;20027;-83
2022/11/19 05:36:42;;;;;;;3.53;2.00;;;5.20;99.90;;;;;;5090774;28;20031;-83
2022/11/19 05:39:08;;;;;;;2.77;2.10;;;5.20;99.90;;;;;;5090883;28;20104;-83
2022/11/19 05:41:33;;;;;;;2.93;2.00;;;5.20;99.90;;;;;;5090500;28;20028;-83
2022/11/19 05:43:59;;;;;;;2.80;1.97;;;5.20;99.90;;;;;;5090529;28;20036;-83
2022/11/19 05:46:24;;;;;;;3.83;1.70;;;5.20;99.90;;;;;;5090628;28;20036;-83
2022/11/19 05:48:50;;;;;;;3.27;2.10;;;5.20;99.90;;;;;;5090383;28;20131;-83
2022/11/19 05:51:16;;;;;;;3.00;2.13;;;5.20;99.90;;;;;;5090545;28;20110;-83
2022/11/19 05:53:42;;;;;;;3.73;2.33;;;5.10;99.90;;;;;;5090689;28;20059;-83
2022/11/19 05:56:08;;;;;;;3.63;2.30;;;5.10;99.90;;;;;;5090471;28;20699;-83
2022/11/19 05:58:33;;;;;;;4.33;2.40;;;5.10;99.90;;;;;;5090735;28;20020;-83
2022/11/19 06:00:59;;;;;;;4.03;2.30;;;5.10;99.90;;;;;;5090323;28;20020;-83
2022/11/19 06:03:25;;;;;;;3.63;2.37;;;5.10;99.90;;;;;;5090762;28;20036;-83
2022/11/19 06:05:51;;;;;;;4.57;2.60;;;5.00;99.90;;;;;;5090399;28;20024;-83
2022/11/19 06:08:17;;;;;;;3.50;2.27;;;5.00;99.90;;;;;;5090284;28;20042;-83
2022/11/19 06:10:45;;;;;;;4.40;2.50;;;5.00;99.90;;;;;;5090577;28;20028;-83
2022/11/19 06:13:10;;;;;;;3.93;2.60;;;5.00;99.90;;;;;;5090145;28;20016;-83
2022/11/19 06:15:36;;;;;;;2.87;2.40;;;5.00;99.90;;;;;;5090897;28;20024;-83
2022/11/19 06:18:01;;;;;;;3.83;2.40;;;5.00;99.90;;;;;;5092306;28;20028;-83
2022/11/19 06:20:27;;;;;;;5.27;2.67;;;5.00;99.90;;;;;;5094863;28;20016;-83
2022/11/19 06:22:53;;;;;;;4.67;2.40;;;5.00;99.90;;;;;;5094961;28;20049;-84
2022/11/19 06:25:18;;;;;;;5.57;2.70;;;5.00;99.90;;;;;;5076538;28;20793;-83
2022/11/19 06:27:44;;;;;;;6.17;2.50;;;5.00;99.90;;;;;;5094485;28;20032;-83
2022/11/19 06:30:10;;;;;;;3.43;2.37;;;5.00;99.90;;;;;;5094305;28;20508;-84
2022/11/19 06:32:36;;;;;;;2.73;2.10;;;5.10;99.90;;;;;;5094312;28;20097;-84
2022/11/19 06:35:02;;;;;;;6.03;2.60;;;5.00;99.90;;;;;;5094605;28;20028;-83
2022/11/19 06:37:27;;;;;;;3.80;2.10;;;5.00;99.90;;;;;;5094165;28;20081;-84
2022/11/19 06:39:54;;;;;;;3.27;2.47;;;5.10;99.90;;;;;;5094390;28;20032;-84
2022/11/19 06:42:35;;;;;;;5.23;2.20;;;5.00;99.90;;;;;;5094013;28;20481;-84
2022/11/19 06:45:12;;;;;;;2.90;2.07;;;5.10;99.90;;;;;;5092428;28;20059;-84
2022/11/19 06:47:39;;;;;;;3.63;2.20;;;5.10;99.90;;;;;;5091810;28;20040;-84
2022/11/19 06:50:06;;;;;;;6.00;2.37;;;5.10;99.90;;;;;;5091213;28;20033;-84
2022/11/19 06:52:32;;;;;;;3.93;2.10;;;5.10;99.90;;;;;;5093246;28;20025;-84
2022/11/19 06:54:57;;;;;;;3.83;2.53;;;5.10;99.90;;;;;;5093603;28;20078;-84
2022/11/19 06:57:23;;;;;;;4.50;2.50;;;5.10;99.90;;;;;;5093361;28;20445;-84
2022/11/19 06:59:49;;;;;;;4.87;2.53;;;5.20;99.90;;;;;;5092774;28;20092;-84
2022/11/19 07:02:15;;;;;;;3.67;2.40;;;5.20;99.90;;;;;;5093388;28;20490;-84
2022/11/19 07:04:40;;;;;;;6.87;2.17;;;5.20;99.90;;;;;;5092851;28;20429;-83
2022/11/19 07:07:07;;;;;;;2.83;1.97;;;5.20;99.90;;;;;;5093938;28;20036;-85
2022/11/19 07:09:33;;;;;;;3.50;2.00;;;5.20;99.90;;;;;;5093133;28;20020;-85
2022/11/19 07:11:58;;;;;;;2.97;1.60;;;5.30;99.90;;;;;;5093000;28;20042;-85
2022/11/19 07:14:24;;;;;;;2.83;1.60;;;5.30;99.90;;;;;;5092647;28;20119;-83
2022/11/19 07:16:49;;;;;;;3.43;1.80;;;5.30;99.90;;;;;;5092043;28;20090;-82
2022/11/19 07:19:15;;;;;;;2.27;1.53;;;5.30;99.90;;;;;;5092103;28;20028;-83
2022/11/19 07:21:40;;;;;;;3.13;1.90;;;5.40;99.90;;;;;;5092647;28;20042;-83
2022/11/19 07:24:08;;;;;;;3.23;2.07;;;5.40;99.90;;;;;;5091901;28;20032;-83
2022/11/19 07:26:34;;;;;;;4.10;1.90;;;5.40;99.90;;;;;;5091952;28;20028;-83
2022/11/19 07:29:03;;;;;;;5.40;2.03;;;5.50;99.90;;;;;;5090706;28;20486;-83
2022/11/19 07:31:29;;;;;;;3.20;1.80;;;5.60;99.90;;;;;;5091628;28;20021;-83
2022/11/19 07:33:55;;;;;;;3.13;2.23;;;5.60;99.90;;;;;;5091948;28;20036;-83
2022/11/19 07:36:21;;;;;;;2.53;2.10;;;5.70;99.90;;;;;;5091634;28;20149;-87
2022/11/19 07:38:47;;;;;;;2.70;2.10;;;5.70;99.90;;;;;;5092333;28;20107;-84
2022/11/19 07:43:57;;;;;;;3.27;2.23;;;5.80;99.90;;;;;;5090654;28;20035;-88
2022/11/19 07:46:23;;;;;;;3.63;2.10;;;5.90;99.90;;;;;;5091456;28;20377;-84
2022/11/19 07:48:55;;;;;;;4.90;1.70;;;6.00;99.90;;;;;;5090434;28;20345;-84
2022/11/19 07:51:22;;;;;;;3.93;1.90;;;6.00;99.90;;;;;;5090960;28;20123;-85
2022/11/19 07:53:48;;;;;;;3.60;2.10;;;6.10;99.90;;;;;;5091856;28;20055;-84
2022/11/19 07:56:14;;;;;;;2.33;2.00;;;6.20;99.90;;;;;;5092044;28;20050;-84
2022/11/19 07:58:40;;;;;;;5.70;2.27;;;6.20;99.90;;;;;;5093861;28;20380;-84
2022/11/19 08:01:17;;;;;;;2.57;2.00;;;6.30;99.90;;;;;;5094536;28;20020;-84
2022/11/19 08:03:45;;;;;;;3.63;2.33;;;6.50;99.90;;;;;;5092671;28;20062;-85
2022/11/19 08:06:12;;;;;;;3.90;2.00;;;6.60;99.90;;;;;;5091344;28;20059;-84
2022/11/19 08:08:37;;;;;;;2.63;1.80;;;6.70;99.90;;;;;;5088375;28;20103;-85
2022/11/19 08:11:04;;;;;;;3.03;2.00;;;6.90;99.90;;;;;;5091458;28;20428;-85
2022/11/19 08:13:31;;;;;;;2.60;1.80;;;7.00;99.90;;;;;;5090480;28;20052;-87
2022/11/19 08:16:00;;;;;;;2.77;1.90;;;7.10;99.90;;;;;;5091550;28;20371;-86
2022/11/19 08:18:26;;;;;;;4.47;2.10;;;7.10;99.90;;;;;;5091471;28;20022;-86
2022/11/19 08:20:52;;;;;;;2.53;1.73;;;7.20;99.90;;;;;;5091434;28;20376;-86
2022/11/19 08:23:18;;;;;;;3.00;2.00;;;7.20;99.90;;;;;;5091459;28;20035;-86
2022/11/19 08:25:43;;;;;;;2.43;2.00;;;7.20;99.90;;;;;;5092314;28;20039;-86
2022/11/19 08:28:10;;;;;;;4.43;2.37;;;7.20;99.90;;;;;;5092322;28;20031;-86
2022/11/19 08:30:38;;;;;;;4.37;2.13;;;7.10;99.90;;;;;;5091883;28;20024;-86
2022/11/19 08:33:04;;;;;;;4.27;1.90;;;7.10;99.90;;;;;;5091910;28;20027;-86
2022/11/19 08:35:29;;;;;;;2.80;1.80;;;7.00;99.90;;;;;;5091603;28;20020;-86
2022/11/19 08:37:57;;;;;;;5.23;2.10;;;7.00;99.90;;;;;;5091901;28;20032;-87
2022/11/19 08:40:22;;;;;;;3.30;1.80;;;7.00;99.90;;;;;;5091254;28;20103;-86
2022/11/19 08:43:01;;;;;;;5.77;1.90;;;7.10;99.90;;;;;;5092054;28;20164;-86
2022/11/19 08:45:35;;;;;;;3.67;2.00;;;7.00;99.90;;;;;;5091467;28;20034;-86
2022/11/19 08:48:04;;;;;;;2.83;1.70;;;7.00;99.90;;;;;;5091398;28;20048;-86
2022/11/19 08:50:31;;;;;;;2.63;1.83;;;7.20;99.90;;;;;;5073641;28;20045;-86
2022/11/19 08:53:02;;;;;;;2.27;1.60;;;7.20;99.90;;;;;;5071504;28;20021;-85
2022/11/19 08:55:28;;;;;;;3.80;1.83;;;7.20;99.90;;;;;;5087480;28;20029;-87
2022/11/19 08:58:01;;;;;;;3.73;1.80;;;7.20;99.90;;;;;;5091597;28;20073;-86
2022/11/19 09:00:27;;;;;;;3.00;1.77;;;7.20;99.90;;;;;;5091210;28;20375;-86
2022/11/19 09:02:53;;;;;;;3.90;1.77;;;7.20;99.90;;;;;;5091592;28;20024;-86
2022/11/19 09:05:19;;;;;;;2.27;1.53;;;7.20;99.90;;;;;;5091009;28;20028;-86
2022/11/19 09:07:44;;;;;;;2.27;1.80;;;7.20;99.90;;;;;;5091612;28;20060;-86
2022/11/19 09:10:10;;;;;;;2.90;1.70;;;7.10;99.90;;;;;;5091529;28;20035;-86
2022/11/19 09:12:36;;;;;;;3.00;2.00;;;7.10;99.90;;;;;;5091072;28;20095;-86
2022/11/19 09:15:02;;;;;;;3.10;1.80;;;7.10;99.90;;;;;;5090965;28;20028;-86
2022/11/19 09:17:28;;;;;;;3.10;1.60;;;7.10;99.90;;;;;;5091038;28;20084;-86
2022/11/19 09:19:54;;;;;;;3.70;1.80;;;7.10;99.90;;;;;;5078662;28;20055;-85
2022/11/19 09:22:19;;;;;;;2.70;1.90;;;7.10;99.90;;;;;;5091257;28;20031;-86
2022/11/19 09:24:45;;;;;;;2.60;1.70;;;7.20;99.90;;;;;;5090862;28;20038;-86
2022/11/19 09:27:10;;;;;;;3.57;1.80;;;7.30;99.90;;;;;;5091353;28;20051;-86
2022/11/19 09:29:36;;;;;;;3.60;1.73;;;7.40;99.90;;;;;;5090722;28;20027;-86
2022/11/19 09:32:02;;;;;;;2.93;1.57;;;7.50;99.90;;;;;;5091044;28;20431;-86
2022/11/19 09:34:27;;;;;;;2.77;1.60;;;7.70;99.90;;;;;;5090728;28;20036;-86
2022/11/19 09:36:53;;;;;;;2.20;1.50;;;7.80;99.90;;;;;;5091124;28;20146;-86
2022/11/19 09:39:18;;;;;;;3.43;1.70;;;7.90;99.90;;;;;;5091043;28;20083;-86
2022/11/19 09:42:15;;;;;;;4.27;1.90;;;8.00;99.90;;;;;;5090804;28;20423;-86
2022/11/19 09:44:43;;;;;;;2.80;2.00;;;8.00;99.90;;;;;;5068915;28;20028;-86
2022/11/19 09:47:19;;;;;;;4.20;2.00;;;7.90;99.90;;;;;;5072208;28;20466;-85
2022/11/19 09:49:54;;;;;;;3.37;1.80;;;8.00;99.90;;;;;;5090501;28;20115;-86
2022/11/19 09:52:23;;;;;;;3.30;1.73;;;8.00;99.90;;;;;;5090656;28;20031;-86
2022/11/19 09:54:52;;;;;;;3.17;2.00;;;8.20;99.90;;;;;;5094540;28;20035;-86
2022/11/19 09:57:44;;;;;;;1.93;1.53;;;8.30;99.90;;;;;;5094871;28;20473;-87
2022/11/19 10:00:18;;;;;;;2.83;1.77;;;8.30;99.90;;;;;;5094710;28;20081;-86
2022/11/19 10:02:43;;;;;;;3.80;2.00;;;8.30;99.90;;;;;;5094651;28;20028;-87
2022/11/19 10:05:14;;;;;;;3.30;1.80;;;8.20;99.90;;;;;;5095019;28;20390;-87
2022/11/19 10:07:53;;;;;;;3.77;1.60;;;8.10;99.90;;;;;;5094924;28;20426;-86
2022/11/19 10:10:57;;;;;;;2.40;1.70;;;8.00;99.90;;;;;;5094574;28;20087;-87
2022/11/19 10:13:46;;;;;;;3.00;1.70;;;8.10;99.90;;;;;;5063465;28;20067;-86
2022/11/19 10:16:27;;;;;;;4.10;2.10;;;8.00;99.90;;;;;;5094280;28;20024;-86
2022/11/19 10:19:02;;;;;;;3.73;1.90;;;8.00;99.90;;;;;;5094577;28;20082;-86
2022/11/19 10:21:32;;;;;;;3.25;1.60;;;8.00;99.90;;;;;;5094191;28;20034;-87
2022/11/19 10:24:16;;;;;;;3.80;1.80;;;8.00;99.90;;;;;;5094313;28;20032;-86
2022/11/19 10:26:43;;;;;;;2.47;1.60;;;8.00;99.90;;;;;;5094435;28;20039;-87
2022/11/19 10:29:14;;;;;;;2.20;1.37;;;8.10;99.90;;;;;;5094373;28;20020;-86
2022/11/19 10:31:48;;;;;;;5.30;1.67;;;8.00;99.90;;;;;;5073895;28;20029;-86
2022/11/19 10:34:36;;;;;;;4.60;1.40;;;8.10;99.90;;;;;;5074008;28;20025;-87
2022/11/19 10:37:12;;;;;;;2.33;1.40;;;8.10;99.90;;;;;;5074274;28;20024;-87
2022/11/19 10:39:50;;;;;;;3.47;1.70;;;8.10;99.90;;;;;;5077882;28;20020;-86
2022/11/19 10:42:31;;;;;;;1.93;1.20;;;8.10;99.90;;;;;;5094891;28;20035;-86
2022/11/19 10:45:13;;;;;;;3.47;1.83;;;8.10;99.90;;;;;;5094886;28;20396;-86
2022/11/19 10:48:08;;;;;;;2.43;1.50;;;8.00;99.90;;;;;;5094877;28;20048;-86
2022/11/19 10:50:34;;;;;;;2.58;1.25;;;8.10;99.90;;;;;;5089395;28;20032;-86
2022/11/19 10:53:04;;;;;;;2.17;1.53;;;8.10;99.90;;;;;;5094923;28;20158;-86
2022/11/19 10:55:36;;;;;;;2.13;1.30;;;8.00;99.90;;;;;;5094958;28;20028;-87
2022/11/19 10:58:14;;;;;;;5.57;1.60;;;7.90;99.90;;;;;;5095064;28;20024;-86
2022/11/19 11:00:41;;;;;;;2.17;1.50;;;7.80;99.90;;;;;;5094691;28;20048;-86
2022/11/19 11:03:17;;;;;;;4.30;1.50;;;7.80;99.90;;;;;;5094747;28;20027;-86
2022/11/19 11:05:54;;;;;;;2.17;1.20;;;7.70;99.90;;;;;;5095040;28;20028;-86
2022/11/19 11:08:20;;;;;;;4.87;2.10;;;7.70;99.90;;;;;;5094525;28;20020;-86
2022/11/19 11:10:46;;;;;;;5.10;1.63;;;7.70;99.90;;;;;;5094493;28;20043;-86
2022/11/19 11:16:45;;;;;;;1.90;1.40;;;7.80;99.90;;;;;;5094555;28;20043;-86
2022/11/19 11:19:18;;;;;;;6.20;2.47;;;7.90;99.90;;;;;;5087231;28;20081;-86
2022/11/19 11:21:44;;;;;;;7.10;2.00;;;7.90;99.90;;;;;;5094752;28;20084;-82
2022/11/19 11:24:11;;;;;;;2.00;1.50;;;7.90;99.90;;;;;;5095038;28;20111;-82
2022/11/19 11:26:38;;;;;;;2.30;1.00;;;7.80;99.90;;;;;;5094791;28;20020;-82
2022/11/19 11:29:13;;;;;;;4.93;2.90;;;7.60;99.90;;;;;;5093691;28;20024;-82
2022/11/19 11:31:44;;;;;;;3.10;1.60;;;7.30;99.90;;;;;;5094897;28;20039;-82
2022/11/19 11:34:24;;;;;;;2.47;1.60;;;7.10;99.90;;;;;;5094686;28;20169;-81
2022/11/19 11:36:50;;;;;;;3.47;1.43;;;7.00;99.90;;;;;;5095057;28;20529;-82
2022/11/19 11:39:33;;;;;;;3.30;1.17;;;6.90;99.90;;;;;;5094750;28;20020;-82
2022/11/19 11:42:00;;;;;;;2.60;1.40;;;6.90;99.90;;;;;;5094404;28;20790;-82
2022/11/19 11:44:32;;;;;;;3.27;1.50;;;6.80;99.90;;;;;;5094527;28;20016;-82
2022/11/19 11:47:13;;;;;;;4.53;1.63;;;6.80;99.90;;;;;;5094601;28;20020;-82
2022/11/19 11:49:44;;;;;;;5.30;1.80;;;6.70;99.90;;;;;;5094384;28;20032;-82
2022/11/19 11:52:10;;;;;;;2.87;1.47;;;6.80;99.90;;;;;;5094814;28;20024;-82
2022/11/19 11:54:57;;;;;;;3.27;1.57;;;6.80;99.90;;;;;;5094742;28;20020;-82
2022/11/19 11:57:32;;;;;;;2.63;1.33;;;6.90;99.90;;;;;;5093412;28;20377;-82
2022/11/19 11:59:59;;;;;;;4.82;1.75;;;7.00;99.90;;;;;;5094188;28;20073;-82
2022/11/19 12:02:31;;;;;;;3.47;1.80;;;7.10;99.90;;;;;;5094404;28;20484;-82
2022/11/19 12:05:12;;;;;;;5.43;1.90;;;7.20;99.90;;;;;;5094076;28;20081;-82
2022/11/19 12:08:03;;;;;;;5.07;2.30;;;7.30;99.90;;;;;;5092753;28;20032;-82
2022/11/19 12:10:32;;;;;;;5.67;2.13;;;7.50;99.90;;;;;;5094062;28;20484;-82
2022/11/19 12:13:09;;;;;;;4.63;2.50;;;7.70;99.90;;;;;;5093831;28;20372;-85
2022/11/19 12:15:50;;;;;;;4.17;2.40;;;7.70;99.90;;;;;;5092282;28;20808;-85
2022/11/19 12:18:33;;;;;;;4.37;1.87;;;7.90;99.90;;;;;;5073435;28;20016;-85
2022/11/19 12:21:09;;;;;;;4.87;1.80;;;8.20;99.90;;;;;;5092960;28;20365;-85
2022/11/19 12:23:51;;;;;;;5.77;2.00;;;8.40;99.90;;;;;;5093308;28;20380;-85
2022/11/19 12:26:21;;;;;;;4.33;1.70;;;8.60;99.90;;;;;;5080823;28;20027;-84
2022/11/19 12:29:06;;;;;;;2.90;2.10;;;8.90;99.90;;;;;;5093215;28;20650;-84
2022/11/19 12:31:54;;;;;;;4.30;2.17;;;9.10;99.90;;;;;;5093292;28;20096;-84
2022/11/19 12:34:33;;;;;;;3.63;2.00;;;9.30;99.90;;;;;;5093304;28;20106;-84
2022/11/19 12:37:24;;;;;;;3.97;2.03;;;9.30;99.90;;;;;;5093221;28;20020;-85
2022/11/19 12:40:16;;;;;;;3.27;1.70;;;9.50;99.90;;;;;;5075431;28;20377;-85
2022/11/19 12:42:54;;;;;;;3.20;2.00;;;9.60;99.90;;;;;;5092755;28;20046;-84
2022/11/19 12:45:35;;;;;;;2.53;1.30;;;9.80;99.90;;;;;;5093134;28;20020;-84
2022/11/19 12:48:19;;;;;;;3.00;1.70;;;9.80;99.90;;;;;;5092572;28;20048;-84
2022/11/19 12:51:06;;;;;;;2.60;1.40;;;9.60;99.90;;;;;;5074938;28;20028;-84
2022/11/19 12:54:04;;;;;;;4.00;1.70;;;9.40;99.90;;;;;;5090189;28;20057;-84
2022/11/19 12:56:46;;;;;;;3.73;1.60;;;9.30;99.90;;;;;;5054365;28;20036;-84
2022/11/19 12:59:17;;;;;;;1.90;1.20;;;9.10;99.90;;;;;;5092261;28;20117;-84
2022/11/19 13:01:48;;;;;;;2.23;1.20;;;8.80;99.90;;;;;;5092141;28;20492;-84
2022/11/19 13:04:35;;;;;;;4.73;1.60;;;8.70;99.90;;;;;;5092372;28;20030;-81
2022/11/19 13:07:07;;;;;;;3.83;1.60;;;8.60;99.90;;;;;;5090566;28;20504;-81
2022/11/19 13:09:40;;;;;;;3.00;1.30;;;8.40;99.90;;;;;;5091717;28;20024;-82
2022/11/19 13:12:16;;;;;;;2.90;1.50;;;8.40;99.90;;;;;;5092069;28;20538;-81
2022/11/19 13:14:46;;;;;;;2.47;1.30;;;8.40;99.90;;;;;;5091812;28;20028;-81
2022/11/19 13:17:20;;;;;;;2.17;1.20;;;8.40;99.90;;;;;;5091872;28;20025;-80
2022/11/19 13:19:52;;;;;;;5.40;1.10;;;8.50;99.90;;;;;;5091845;28;20035;-81
2022/11/19 13:22:26;;;;;;;3.13;1.40;;;8.50;99.90;;;;;;5091438;28;20039;-81
2022/11/19 13:25:04;;;;;;;2.23;1.20;;;8.60;99.90;;;;;;5091844;28;20035;-82
2022/11/19 13:27:30;;;;;;;2.87;1.77;;;8.50;99.90;;;;;;5094016;28;20032;-80
2022/11/19 13:30:04;;;;;;;2.80;1.30;;;8.40;99.90;;;;;;5096429;28;20030;-81
2022/11/19 13:32:48;;;;;;;3.03;1.37;;;8.50;99.90;;;;;;5095801;28;20111;-80
2022/11/19 13:35:19;;;;;;;4.60;1.50;;;8.40;99.90;;;;;;5097100;28;20027;-82
2022/11/19 13:38:11;;;;;;;2.37;1.20;;;8.40;99.90;;;;;;5095459;28;20051;-82